Terminal Aerodrome Forecast
Issued by NWS

Home | Current Version | Previous Version | Text Only | Print | Product List | Glossary On
Versions: 1 2 3 4 5 6 7 8 9 10 11 12
000
FTUS46 KMTR 222320
TAFMRY
TAF
KMRY 222320Z 2300/2324 27016G24KT P6SM VCSH SCT025 BKN040
     FM230200 27020G28KT P6SM VCSH SCT025 SCT050 BKN100
     FM230600 26014G21KT P6SM FEW040
     FM230900 25011G18KT P6SM SKC
     FM231500 09012KT P6SM SKC
     FM231800 32008KT P6SM SKC=

USA.gov is the U.S. government's official web portal to all federal, state and local government web resources and services.